Dongola, Arkansas
Current Conditions -  °F | °C
As of 6:55 AM on Friday 19 Dec 2014 (Local Time) from KFLP Reporting Station
Overcast Overcast  
Wind Chill: 34°   Ceiling: 600
Heat Index: 37°   Visibility: 5mi
Dew Point: 34°   Wind: 5mph
Humidity: 87%   Direction: 110°ESE
Pressure: 30.23"   Gusts: NA
Location:  35.9407°N, 92.655°W
Report Text: KFLP 191255Z 11004KT 5SM OVC006 03/01 A3023 RMK AO1
Loading
Personal Weather Stations






























Interactive Weather Map New forecast layout! Learn more

10-Day Weather Forecast

Advertisements
Track Severe Weather on mobile